Time;durP1;ratioP1;P1;durP2;ratioP2;P2;SDS_P1;SDS_P2;PMS_P1;PMS_P2;Temp;Humidity;BMP_temperature;BMP_pressure;BME280_temperature;BME280_humidity;BME280_pressure;Samples;Min_cycle;Max_cycle;Signal;HPM_P1;HPM_P2
2023/10/14 00:02:08;;;;;;;;;;;;;;;11.26;80.36;95616.44;5096295;28;968;-59
2023/10/14 00:04:34;;;;;;;;;;;;;;;11.33;80.06;95606.81;5096262;28;1120;-59
2023/10/14 00:07:07;;;;;;;;;;;;;;;11.31;80.20;95606.97;5096122;28;1067;-59
2023/10/14 00:09:35;;;;;;;;;;;;;;;11.31;80.33;95606.13;5096075;28;1917;-60
2023/10/14 00:12:03;;;;;;;;;;;;;;;11.46;79.82;95603.75;5095895;28;1106;-60
2023/10/14 00:14:29;;;;;;;;;;;;;;;11.29;80.06;95605.44;5095737;28;1051;-59
2023/10/14 00:16:56;;;;;;;;;;;;;;;11.26;80.60;95605.75;5095714;28;1103;-60
2023/10/14 00:19:22;;;;;;;;;;;;;;;11.17;80.76;95606.66;5095566;28;1083;-60
2023/10/14 00:21:49;;;;;;;;;;;;;;;10.96;82.28;95613.16;5094712;28;1145;-60
2023/10/14 00:24:25;;;;;;;;;;;;;;;10.84;82.98;95615.22;5095838;28;1209;-60
2023/10/14 00:26:54;;;;;;;;;;;;;;;10.92;82.49;95615.28;5095753;28;972;-59
2023/10/14 00:29:20;;;;;;;;;;;;;;;11.01;81.78;95610.88;5095581;28;1983;-59
2023/10/14 00:31:51;;;;;;;;;;;;;;;11.03;81.50;95610.72;5095487;28;1016;-60
2023/10/14 00:34:25;;;;;;;;;;;;;;;10.86;82.58;95612.41;5095516;28;1062;-60
2023/10/14 00:36:55;;;;;;;;;;;;;;;10.89;82.59;95604.09;5095434;28;1091;-59
2023/10/14 00:39:26;;;;;;;;;;;;;;;10.93;82.05;95606.28;5095297;28;1040;-59
2023/10/14 00:41:53;;;;;;;;;;;;;;;10.84;82.76;95609.03;5094100;28;1024;-60
2023/10/14 00:44:20;;;;;;;;;;;;;;;10.80;83.20;95608.50;5095449;28;959;-60
2023/10/14 00:46:49;;;;;;;;;;;;;;;10.77;83.36;95606.09;5095445;28;980;-60
2023/10/14 00:49:23;;;;;;;;;;;;;;;10.81;83.02;95604.81;5093893;28;1910;-60
2023/10/14 00:51:51;;;;;;;;;;;;;;;11.08;81.17;95614.63;5095173;28;1043;-60
2023/10/14 00:55:12;;;;;;;;;;;;;;;11.14;80.90;95597.13;5094874;28;1048;-60
2023/10/14 00:57:19;;;;;;;;;;;;;;;11.03;81.27;95600.84;5094188;28;1160;-60
2023/10/14 00:59:48;;;;;;;;;;;;;;;10.75;82.96;95600.91;5095037;28;1012;-60
2023/10/14 01:02:14;;;;;;;;;;;;;;;10.91;82.38;95594.06;5094798;28;1060;-60
2023/10/14 01:04:47;;;;;;;;;;;;;;;10.90;82.21;95590.53;5094783;28;1047;-60
2023/10/14 01:07:13;;;;;;;;;;;;;;;10.89;82.40;95596.06;5094923;28;1056;-60
2023/10/14 01:14:44;;;;;;;;;;;;;;;10.88;82.48;95594.34;5094742;28;1051;-60
2023/10/14 01:17:19;;;;;;;;;;;;;;;10.89;82.49;95591.53;5093634;28;972;-60
2023/10/14 01:19:46;;;;;;;;;;;;;;;10.89;82.62;95593.38;5093385;28;1504;-60
2023/10/14 01:22:13;;;;;;;;;;;;;;;10.99;81.74;95583.44;5094736;28;1027;-60
2023/10/14 01:24:41;;;;;;;;;;;;;;;10.87;81.96;95581.97;5094446;28;1083;-60
2023/10/14 01:27:10;;;;;;;;;;;;;;;10.68;82.91;95580.25;5094499;28;1024;-60
2023/10/14 01:29:40;;;;;;;;;;;;;;;10.58;82.97;95572.31;5094605;28;1929;-60
2023/10/14 01:32:24;;;;;;;;;;;;;;;10.46;83.45;95574.38;5094349;28;1010;-60
2023/10/14 01:34:57;;;;;;;;;;;;;;;10.30;84.33;95566.13;5094609;28;968;-60
2023/10/14 01:37:26;;;;;;;;;;;;;;;10.24;84.74;95566.72;5094137;28;981;-60
2023/10/14 01:40:08;;;;;;;;;;;;;;;10.30;84.48;95567.00;5094146;28;1123;-59
2023/10/14 01:42:34;;;;;;;;;;;;;;;10.44;83.86;95567.50;5094104;28;1092;-60
2023/10/14 01:45:00;;;;;;;;;;;;;;;10.60;82.88;95562.31;5094085;28;1036;-65
2023/10/14 01:47:26;;;;;;;;;;;;;;;10.66;82.81;95567.06;5094041;28;1902;-58
2023/10/14 01:49:53;;;;;;;;;;;;;;;10.57;83.14;95565.31;5093950;28;1150;-59
2023/10/14 01:52:19;;;;;;;;;;;;;;;10.56;82.96;95563.59;5094141;28;968;-58
2023/10/14 01:54:47;;;;;;;;;;;;;;;10.54;83.14;95557.56;5094004;28;952;-58
2023/10/14 01:57:16;;;;;;;;;;;;;;;10.50;82.94;95559.69;5093690;28;1226;-58
2023/10/14 01:59:43;;;;;;;;;;;;;;;10.48;83.05;95563.53;5094066;28;996;-58
2023/10/14 02:02:09;;;;;;;;;;;;;;;10.49;83.10;95566.06;5093791;28;1114;-58
2023/10/14 02:04:36;;;;;;;;;;;;;;;10.39;83.36;95557.25;5092600;28;1095;-58
2023/10/14 02:07:26;;;;;;;;;;;;;;;10.28;83.72;95555.59;5092612;28;1840;-58
2023/10/14 02:09:48;;;;;;;;;;;;;;;10.19;84.22;95558.28;5093574;28;1218;-58
2023/10/14 02:12:15;;;;;;;;;;;;;;;10.33;82.75;95553.34;5093909;28;1039;-58
2023/10/14 02:14:53;;;;;;;;;;;;;;;10.28;83.19;95555.59;5093642;28;956;-58
2023/10/14 02:17:21;;;;;;;;;;;;;;;10.18;83.61;95553.97;5093833;28;1043;-58
2023/10/14 02:19:50;;;;;;;;;;;;;;;10.11;83.66;95549.22;5093586;28;972;-59
2023/10/14 02:22:21;;;;;;;;;;;;;;;10.09;83.64;95545.00;5093734;28;1016;-58
2023/10/14 02:24:48;;;;;;;;;;;;;;;10.25;82.93;95547.88;5093569;28;1036;-58
2023/10/14 02:27:14;;;;;;;;;;;;;;;10.08;83.51;95552.19;5092574;28;999;-58
2023/10/14 02:29:46;;;;;;;;;;;;;;;9.92;84.47;95547.47;5093529;28;1906;-58
2023/10/14 02:32:13;;;;;;;;;;;;;;;9.94;84.39;95544.63;5093728;28;1046;-58
2023/10/14 02:34:39;;;;;;;;;;;;;;;9.90;84.57;95548.59;5093367;28;1102;-58
2023/10/14 02:37:07;;;;;;;;;;;;;;;10.06;83.63;95542.63;5093387;28;1067;-58
2023/10/14 02:39:33;;;;;;;;;;;;;;;9.92;83.94;95544.81;5093572;28;1007;-58
2023/10/14 02:41:59;;;;;;;;;;;;;;;9.84;84.28;95549.19;5093405;28;1036;-58
2023/10/14 02:44:32;;;;;;;;;;;;;;;9.76;84.70;95548.09;5095517;28;972;-58
2023/10/14 02:47:05;;;;;;;;;;;;;;;9.75;84.56;95548.22;5097477;28;727;-58
2023/10/14 02:49:36;;;;;;;;;;;;;;;9.77;85.13;95548.94;5097472;28;1973;-58
2023/10/14 02:52:08;;;;;;;;;;;;;;;9.85;84.49;95550.88;5097611;28;964;-58
2023/10/14 02:54:35;;;;;;;;;;;;;;;9.85;83.93;95549.06;5097421;28;932;-58
2023/10/14 02:57:12;;;;;;;;;;;;;;;9.63;85.01;95549.41;5097124;28;1136;-58
2023/10/14 03:07:46;;;;;;;;;;;;;;;9.63;85.26;95552.09;5097334;28;1047;-58
2023/10/14 03:10:42;;;;;;;;;;;;;;;9.63;84.93;95546.75;5096885;28;1907;-58
2023/10/14 03:13:00;;;;;;;;;;;;;;;9.61;85.09;95546.88;5096675;28;1180;-58
2023/10/14 03:15:30;;;;;;;;;;;;;;;9.56;85.52;95552.66;5097030;28;1256;-58
2023/10/14 03:18:01;;;;;;;;;;;;;;;9.63;85.14;95549.41;5097256;28;972;-58
2023/10/14 03:22:58;;;;;;;;;;;;;;;9.49;85.40;95551.56;5096750;28;1044;-58
2023/10/14 03:25:27;;;;;;;;;;;;;;;9.60;85.61;95552.34;5096589;28;1044;-58
2023/10/14 03:28:08;;;;;;;;;;;;;;;9.63;85.16;95546.75;5096609;28;1914;-58
2023/10/14 03:30:37;;;;;;;;;;;;;;;9.67;85.30;95542.78;5096557;28;1108;-58
2023/10/14 03:33:11;;;;;;;;;;;;;;;9.60;85.41;95544.34;5096597;28;1095;-59
2023/10/14 03:35:38;;;;;;;;;;;;;;;9.51;85.34;95544.25;5096924;28;1007;-58
2023/10/14 03:43:15;;;;;;;;;;;;;;;9.40;85.44;95536.41;5096314;28;1095;-65
2023/10/14 03:46:03;;;;;;;;;;;;;;;9.37;85.52;95531.34;5096602;28;984;-65
2023/10/14 03:48:54;;;;;;;;;;;;;;;9.33;86.00;95535.28;5096278;28;1977;-62
2023/10/14 03:51:25;;;;;;;;;;;;;;;9.48;85.34;95528.50;5075868;28;1226;-65
2023/10/14 03:53:52;;;;;;;;;;;;;;;9.47;85.10;95531.34;5076349;28;980;-64
2023/10/14 03:56:21;;;;;;;;;;;;;;;9.45;85.34;95526.16;5075601;28;1236;-64
2023/10/14 03:58:49;;;;;;;;;;;;;;;9.42;85.43;95531.75;5091498;28;1102;-65
2023/10/14 04:01:22;;;;;;;;;;;;;;;9.44;85.82;95535.13;5075785;28;1072;-62
2023/10/14 04:03:51;;;;;;;;;;;;;;;9.38;85.87;95530.38;5075772;28;1095;-61
2023/10/14 04:06:19;;;;;;;;;;;;;;;9.45;85.26;95525.31;5075909;28;1051;-62
2023/10/14 04:08:47;;;;;;;;;;;;;;;9.49;84.67;95524.88;5075511;28;1997;-62
2023/10/14 04:11:25;;;;;;;;;;;;;;;9.45;85.33;95528.81;5075815;28;1023;-62
2023/10/14 04:17:00;;;;;;;;;;;;;;;9.32;85.68;95530.97;5074786;28;1502;-65
2023/10/14 04:27:45;;;;;;;;;;;;;;;9.17;85.58;95536.72;5075355;28;1909;-63
2023/10/14 04:30:12;;;;;;;;;;;;;;;9.17;85.29;95530.56;5075511;28;1033;-61
2023/10/14 04:32:48;;;;;;;;;;;;;;;9.10;85.70;95527.59;5075467;28;1043;-61
2023/10/14 04:35:19;;;;;;;;;;;;;;;9.10;85.66;95532.94;5090738;28;991;-63
2023/10/14 04:37:51;;;;;;;;;;;;;;;9.08;85.83;95521.56;5075111;28;1300;-60
2023/10/14 04:40:35;;;;;;;;;;;;;;;9.21;85.39;95531.97;5075212;28;1010;-63
2023/10/14 04:45:51;;;;;;;;;;;;;;;9.12;85.37;95530.97;5075097;28;1283;-61
2023/10/14 04:48:17;;;;;;;;;;;;;;;9.08;85.93;95526.09;5074786;28;1935;-60
2023/10/14 04:50:47;;;;;;;;;;;;;;;9.04;86.41;95533.53;5090909;28;1138;-59
2023/10/14 04:53:13;;;;;;;;;;;;;;;9.14;85.98;95531.69;5095198;28;964;-62
2023/10/14 04:55:43;;;;;;;;;;;;;;;9.23;85.90;95539.81;5094898;28;1187;-61
2023/10/14 04:58:13;;;;;;;;;;;;;;;9.29;85.51;95539.25;5095355;28;1042;-60
2023/10/14 05:00:43;;;;;;;;;;;;;;;9.15;85.78;95533.38;5095499;28;999;-61
2023/10/14 05:03:09;;;;;;;;;;;;;;;8.93;86.09;95536.34;5095180;28;1065;-61
2023/10/14 05:05:38;;;;;;;;;;;;;;;8.84;87.36;95539.84;5094836;28;1036;-61
2023/10/14 05:08:05;;;;;;;;;;;;;;;8.95;87.34;95540.56;5094194;28;1910;-61
2023/10/14 05:10:31;;;;;;;;;;;;;;;9.03;87.39;95541.66;5094716;28;1034;-62
2023/10/14 05:12:57;;;;;;;;;;;;;;;9.31;85.85;95539.94;5094833;28;964;-61
2023/10/14 05:15:27;;;;;;;;;;;;;;;9.41;86.02;95547.91;5094573;28;990;-61
2023/10/14 05:18:00;;;;;;;;;;;;;;;9.41;86.51;95543.44;5095200;28;1027;-61
2023/10/14 05:20:54;;;;;;;;;;;;;;;9.43;87.11;95543.28;5094668;28;1015;-61
2023/10/14 05:23:24;;;;;;;;;;;;;;;9.35;88.29;95542.19;5094388;28;1131;-61
2023/10/14 05:25:56;;;;;;;;;;;;;;;9.44;88.34;95556.47;5094478;28;1091;-61
2023/10/14 05:28:29;;;;;;;;;;;;;;;9.68;87.50;95558.66;5093096;28;1910;-60
2023/10/14 05:30:57;;;;;;;;;;;;;;;10.05;86.06;95562.31;5094603;28;1237;-61
2023/10/14 05:33:23;;;;;;;;;;;;;;;10.33;84.59;95564.03;5094213;28;1040;-61
2023/10/14 05:35:49;;;;;;;;;;;;;;;10.68;83.08;95565.09;5094616;28;1063;-61
2023/10/14 05:38:17;;;;;;;;;;;;;;;10.89;83.30;95567.47;5094184;28;1047;-60
2023/10/14 05:40:43;;;;;;;;;;;;;;;11.29;81.27;95562.63;5094163;28;1032;-61
2023/10/14 05:43:10;;;;;;;;;;;;;;;11.63;79.78;95553.78;5094407;28;964;-61
2023/10/14 05:45:36;;;;;;;;;;;;;;;11.91;78.86;95560.72;5094584;28;1070;-61
2023/10/14 05:48:03;;;;;;;;;;;;;;;13.32;72.97;95557.41;5094335;28;1989;-61
2023/10/14 05:50:30;;;;;;;;;;;;;;;13.80;70.63;95561.06;5094220;28;1165;-61
2023/10/14 05:52:56;;;;;;;;;;;;;;;14.55;67.54;95565.19;5094019;28;1040;-61
2023/10/14 05:55:22;;;;;;;;;;;;;;;16.07;61.97;95569.94;5093671;28;1238;-60
2023/10/14 05:57:48;;;;;;;;;;;;;;;17.47;56.25;95577.94;5094123;28;1052;-61
2023/10/14 06:00:25;;;;;;;;;;;;;;;18.36;53.01;95586.53;5093820;28;1016;-61
2023/10/14 06:02:52;;;;;;;;;;;;;;;19.59;49.06;95587.44;5092736;28;1099;-61
2023/10/14 06:05:22;;;;;;;;;;;;;;;20.64;46.13;95594.94;5093831;28;964;-61
2023/10/14 06:07:48;;;;;;;;;;;;;;;21.04;45.20;95609.22;5092782;28;1910;-60
2023/10/14 06:10:20;;;;;;;;;;;;;;;21.78;43.38;95604.25;5093860;28;1027;-60
2023/10/14 06:12:47;;;;;;;;;;;;;;;22.27;42.29;95604.53;5093861;28;1031;-61
2023/10/14 06:15:17;;;;;;;;;;;;;;;22.58;41.30;95611.75;5093851;28;961;-61
2023/10/14 06:17:47;;;;;;;;;;;;;;;22.99;40.34;95617.59;5093319;28;1003;-61
2023/10/14 06:20:14;;;;;;;;;;;;;;;23.43;39.65;95615.63;5093412;28;1011;-61
2023/10/14 06:22:41;;;;;;;;;;;;;;;23.63;38.21;95619.97;5092488;28;1060;-59
2023/10/14 06:25:07;;;;;;;;;;;;;;;23.52;38.62;95616.13;5092426;28;1362;-59
2023/10/14 06:27:33;;;;;;;;;;;;;;;23.41;38.90;95616.91;5093800;28;1910;-59
2023/10/14 06:29:59;;;;;;;;;;;;;;;23.53;38.79;95612.34;5092371;28;1079;-59
2023/10/14 06:32:25;;;;;;;;;;;;;;;22.48;39.98;95605.16;5093484;28;1059;-59
2023/10/14 06:34:57;;;;;;;;;;;;;;;20.46;43.89;95588.25;5093494;28;1032;-59
2023/10/14 06:37:25;;;;;;;;;;;;;;;18.81;48.60;95573.47;5093711;28;1035;-58
2023/10/14 06:39:51;;;;;;;;;;;;;;;18.29;50.78;95564.84;5093415;28;1467;-59
2023/10/14 06:42:22;;;;;;;;;;;;;;;17.54;53.63;95550.94;5093594;28;1012;-60
2023/10/14 06:44:48;;;;;;;;;;;;;;;17.14;55.65;95545.16;5092188;28;1552;-59
2023/10/14 06:47:15;;;;;;;;;;;;;;;17.25;56.26;95541.13;5093188;28;1220;-58
2023/10/14 06:49:44;;;;;;;;;;;;;;;17.40;56.10;95549.16;5093393;28;1989;-58
2023/10/14 06:52:13;;;;;;;;;;;;;;;17.35;55.10;95547.84;5093231;28;1036;-58
2023/10/14 06:54:41;;;;;;;;;;;;;;;17.25;55.34;95552.75;5093569;28;975;-58
2023/10/14 06:57:09;;;;;;;;;;;;;;;17.22;56.37;95553.13;5093105;28;1226;-58
2023/10/14 06:59:38;;;;;;;;;;;;;;;17.52;55.48;95556.53;5093218;28;968;-58
2023/10/14 07:02:05;;;;;;;;;;;;;;;17.20;55.79;95547.09;5093059;28;1100;-58
2023/10/14 07:04:37;;;;;;;;;;;;;;;17.37;56.13;95548.50;5092241;28;2220;-58
2023/10/14 07:07:07;;;;;;;;;;;;;;;17.58;55.58;95538.69;5072480;28;2767;-58
2023/10/14 07:09:34;;;;;;;;;;;;;;;17.59;54.84;95543.09;5072735;28;1905;-58
2023/10/14 07:12:00;;;;;;;;;;;;;;;17.88;54.18;95544.78;5072808;28;1025;-58
2023/10/14 07:14:26;;;;;;;;;;;;;;;17.75;55.05;95545.50;5072774;28;1096;-58
2023/10/14 07:16:52;;;;;;;;;;;;;;;17.72;55.63;95537.78;5072684;28;1052;-58
2023/10/14 07:19:18;;;;;;;;;;;;;;;17.90;54.94;95542.72;5071721;28;1008;-59
2023/10/14 07:21:44;;;;;;;;;;;;;;;17.77;55.40;95539.91;5072701;28;1041;-58
2023/10/14 07:24:14;;;;;;;;;;;;;;;17.75;55.74;95537.38;5072605;28;992;-58
2023/10/14 07:26:40;;;;;;;;;;;;;;;17.89;56.35;95532.97;5072741;28;1036;-58
2023/10/14 07:29:06;;;;;;;;;;;;;;;18.12;54.98;95538.09;5072910;28;1995;-58
2023/10/14 07:31:36;;;;;;;;;;;;;;;18.18;53.52;95536.47;5076453;28;991;-58
2023/10/14 07:34:02;;;;;;;;;;;;;;;18.18;55.56;95524.81;5075784;28;2498;-58
2023/10/14 07:36:32;;;;;;;;;;;;;;;18.40;53.85;95534.53;5076198;28;1094;-58
2023/10/14 07:39:04;;;;;;;;;;;;;;;18.78;53.17;95525.06;5076556;28;972;-58
2023/10/14 07:41:30;;;;;;;;;;;;;;;19.11;51.85;95515.19;5076184;28;1045;-58
2023/10/14 07:43:56;;;;;;;;;;;;;;;19.06;52.19;95511.44;5074950;28;1004;-59
2023/10/14 07:46:23;;;;;;;;;;;;;;;19.23;52.51;95510.00;5076218;28;1056;-58
2023/10/14 07:48:53;;;;;;;;;;;;;;;19.24;52.14;95502.72;5076232;28;1913;-58
2023/10/14 07:51:19;;;;;;;;;;;;;;;19.40;51.89;95499.59;5096816;28;972;-59
2023/10/14 07:53:45;;;;;;;;;;;;;;;19.57;51.47;95501.91;5096541;28;968;-58
2023/10/14 07:56:11;;;;;;;;;;;;;;;19.63;52.18;95504.59;5095888;28;1068;-59
2023/10/14 07:58:38;;;;;;;;;;;;;;;20.01;50.42;95498.53;5096030;28;1029;-58
2023/10/14 08:01:06;;;;;;;;;;;;;;;20.18;49.67;95501.63;5096454;28;972;-58
2023/10/14 08:03:32;;;;;;;;;;;;;;;20.19;50.21;95500.59;5095947;28;1036;-58
2023/10/14 08:05:59;;;;;;;;;;;;;;;20.29;50.28;95505.59;5096180;28;996;-58
2023/10/14 08:08:30;;;;;;;;;;;;;;;20.39;49.58;95503.25;5082601;28;2932;-58
2023/10/14 08:10:58;;;;;;;;;;;;;;;20.50;47.76;95496.31;5075774;28;1043;-60
2023/10/14 08:13:24;;;;;;;;;;;;;;;20.59;49.63;95496.94;5075816;28;1214;-60
2023/10/14 08:15:51;;;;;;;;;;;;;;;20.75;48.54;95503.78;5075793;28;972;-60
2023/10/14 08:18:19;;;;;;;;;;;;;;;20.85;48.50;95498.72;5075544;28;1020;-60
2023/10/14 08:20:45;;;;;;;;;;;;;;;21.02;47.83;95490.91;5075580;28;988;-60
2023/10/14 08:23:12;;;;;;;;;;;;;;;21.09;47.71;95490.84;5075227;28;1264;-60
2023/10/14 08:25:39;;;;;;;;;;;;;;;21.15;48.28;95479.94;5075565;28;960;-60
2023/10/14 08:28:05;;;;;;;;;;;;;;;21.22;47.58;95478.00;5075485;28;1989;-60
2023/10/14 08:30:33;;;;;;;;;;;;;;;21.29;47.18;95483.41;5075043;28;2728;-61
2023/10/14 08:33:03;;;;;;;;;;;;;;;21.50;47.08;95481.41;5075599;28;1052;-59
2023/10/14 08:35:33;;;;;;;;;;;;;;;21.24;46.66;95478.59;5075512;28;984;-59
2023/10/14 08:37:59;;;;;;;;;;;;;;;21.36;47.15;95467.03;5074285;28;2013;-58
2023/10/14 08:40:26;;;;;;;;;;;;;;;21.49;46.57;95466.94;5074867;28;1192;-61
2023/10/14 08:42:57;;;;;;;;;;;;;;;21.66;47.26;95460.97;5074415;28;1047;-59
2023/10/14 08:45:26;;;;;;;;;;;;;;;22.01;46.47;95462.09;5075024;28;1051;-59
2023/10/14 08:47:54;;;;;;;;;;;;;;;22.07;46.02;95463.06;5074785;28;1918;-59
2023/10/14 08:50:24;;;;;;;;;;;;;;;22.15;46.00;95451.06;5087634;28;1239;-59
2023/10/14 08:52:54;;;;;;;;;;;;;;;22.14;44.49;95455.66;5095123;28;964;-59
2023/10/14 08:55:20;;;;;;;;;;;;;;;22.23;44.63;95454.31;5095046;28;1300;-60
2023/10/14 08:57:47;;;;;;;;;;;;;;;22.11;44.07;95447.13;5095060;28;1045;-59
2023/10/14 09:00:19;;;;;;;;;;;;;;;22.19;45.04;95436.75;5095026;28;1069;-59
2023/10/14 09:02:46;;;;;;;;;;;;;;;22.39;43.51;95443.91;5094695;28;1020;-59
2023/10/14 09:05:16;;;;;;;;;;;;;;;22.60;43.75;95439.88;5094752;28;1088;-59
2023/10/14 09:07:44;;;;;;;;;;;;;;;22.68;43.08;95438.72;5094758;28;2000;-59
2023/10/14 09:10:11;;;;;;;;;;;;;;;22.76;43.48;95438.38;5094945;28;1036;-59
2023/10/14 09:12:37;;;;;;;;;;;;;;;22.87;42.78;95434.06;5094895;28;1036;-59
2023/10/14 09:15:03;;;;;;;;;;;;;;;22.88;42.92;95430.25;5094806;28;1099;-59
2023/10/14 09:17:29;;;;;;;;;;;;;;;22.86;43.19;95419.59;5094489;28;1197;-59
2023/10/14 09:19:56;;;;;;;;;;;;;;;23.02;41.73;95418.09;5094751;28;939;-59
2023/10/14 09:22:24;;;;;;;;;;;;;;;23.14;41.61;95416.25;5093229;28;1054;-60
2023/10/14 09:24:55;;;;;;;;;;;;;;;23.27;41.52;95406.22;5094512;28;1103;-59
2023/10/14 09:27:21;;;;;;;;;;;;;;;23.24;41.59;95409.41;5094539;28;972;-59
2023/10/14 09:29:47;;;;;;;;;;;;;;;23.41;40.62;95399.50;5094444;28;1977;-59
2023/10/14 09:32:15;;;;;;;;;;;;;;;23.43;41.06;95396.50;5093121;28;1020;-59
2023/10/14 09:34:42;;;;;;;;;;;;;;;23.48;41.05;95397.44;5093125;28;1051;-59
2023/10/14 09:37:12;;;;;;;;;;;;;;;23.71;40.65;95388.47;5094597;28;971;-59
2023/10/14 09:39:41;;;;;;;;;;;;;;;23.69;40.33;95387.03;5094271;28;1091;-59
2023/10/14 09:42:10;;;;;;;;;;;;;;;23.73;40.74;95382.75;5094337;28;1020;-59
2023/10/14 09:44:42;;;;;;;;;;;;;;;23.72;40.59;95376.47;5094425;28;980;-59
2023/10/14 09:47:12;;;;;;;;;;;;;;;23.73;40.65;95371.81;5094156;28;1083;-58
2023/10/14 09:49:38;;;;;;;;;;;;;;;23.83;39.46;95366.66;5094168;28;1987;-60
2023/10/14 09:52:05;;;;;;;;;;;;;;;23.94;41.16;95357.59;5094149;28;1039;-56
2023/10/14 09:54:33;;;;;;;;;;;;;;;23.77;40.11;95354.75;5093719;28;1210;-58
2023/10/14 09:57:02;;;;;;;;;;;;;;;23.83;40.85;95346.69;5093820;28;1234;-56
2023/10/14 09:59:30;;;;;;;;;;;;;;;23.97;40.57;95346.19;5093829;28;1028;-57
2023/10/14 10:01:56;;;;;;;;;;;;;;;24.05;40.44;95338.69;5093778;28;1239;-61
2023/10/14 10:04:26;;;;;;;;;;;;;;;23.92;40.75;95329.72;5093949;28;972;-59
2023/10/14 10:06:52;;;;;;;;;;;;;;;24.03;40.31;95327.19;5093784;28;1427;-59
2023/10/14 10:09:41;;;;;;;;;;;;;;;24.27;40.63;95322.50;5093672;28;1909;-59
2023/10/14 10:12:10;;;;;;;;;;;;;;;24.15;40.74;95315.16;5073894;28;1287;-60
2023/10/14 10:14:38;;;;;;;;;;;;;;;23.94;40.87;95313.06;5092301;28;1027;-60
2023/10/14 10:17:08;;;;;;;;;;;;;;;24.05;40.57;95304.00;5093573;28;1052;-59
2023/10/14 10:19:53;;;;;;;;;;;;;;;23.92;39.38;95299.69;5093576;28;1043;-58
2023/10/14 10:22:19;;;;;;;;;;;;;;;24.14;40.42;95290.81;5093481;28;1019;-58
2023/10/14 10:24:46;;;;;;;;;;;;;;;24.36;39.90;95291.81;5093429;28;1044;-58
2023/10/14 10:27:14;;;;;;;;;;;;;;;24.55;41.13;95283.44;5093576;28;1062;-59
2023/10/14 10:29:47;;;;;;;;;;;;;;;24.40;38.58;95281.22;5093462;28;1902;-58
2023/10/14 10:32:16;;;;;;;;;;;;;;;24.34;39.81;95283.03;5093427;28;1008;-59
2023/10/14 10:35:02;;;;;;;;;;;;;;;24.29;39.21;95272.00;5093263;28;1072;-59
2023/10/14 10:37:28;;;;;;;;;;;;;;;24.61;39.09;95260.56;5093012;28;1051;-58
2023/10/14 10:39:54;;;;;;;;;;;;;;;24.62;39.75;95248.56;5093555;28;984;-57
2023/10/14 10:42:20;;;;;;;;;;;;;;;24.70;40.66;95244.59;5093210;28;1025;-57
2023/10/14 10:44:47;;;;;;;;;;;;;;;24.76;39.23;95243.63;5093305;28;1040;-57
2023/10/14 10:47:14;;;;;;;;;;;;;;;24.90;40.03;95244.09;5093361;28;1003;-57
2023/10/14 10:49:49;;;;;;;;;;;;;;;24.96;40.13;95237.63;5093220;28;1906;-57
2023/10/14 10:52:16;;;;;;;;;;;;;;;25.05;40.25;95232.56;5093114;28;969;-56
2023/10/14 10:54:42;;;;;;;;;;;;;;;25.12;40.42;95223.13;5093152;28;1091;-56
2023/10/14 10:57:11;;;;;;;;;;;;;;;25.12;39.16;95219.56;5093026;28;1118;-57
2023/10/14 10:59:39;;;;;;;;;;;;;;;25.04;39.60;95218.09;5093107;28;1099;-57
2023/10/14 11:02:06;;;;;;;;;;;;;;;25.00;39.85;95211.44;5093116;28;1036;-56
2023/10/14 11:04:32;;;;;;;;;;;;;;;24.81;38.62;95202.66;5093835;28;980;-56
2023/10/14 11:07:00;;;;;;;;;;;;;;;24.71;39.44;95197.03;5097039;28;1056;-56
2023/10/14 11:09:30;;;;;;;;;;;;;;;24.81;40.31;95186.25;5096869;28;1906;-56
2023/10/14 11:12:02;;;;;;;;;;;;;;;24.98;40.55;95182.69;5097187;28;976;-57
2023/10/14 11:14:29;;;;;;;;;;;;;;;25.06;38.50;95182.25;5078249;28;2838;-57
2023/10/14 11:16:58;;;;;;;;;;;;;;;25.06;39.22;95172.16;5076865;28;984;-57
2023/10/14 11:19:33;;;;;;;;;;;;;;;25.14;40.39;95170.91;5076397;28;1040;-56
2023/10/14 11:22:01;;;;;;;;;;;;;;;25.19;39.68;95162.75;5076529;28;929;-58
2023/10/14 11:24:28;;;;;;;;;;;;;;;25.28;39.68;95164.00;5076641;28;1047;-58
2023/10/14 11:26:57;;;;;;;;;;;;;;;25.26;39.92;95157.94;5076570;28;991;-57
2023/10/14 11:29:25;;;;;;;;;;;;;;;25.33;39.75;95158.59;5075026;28;1905;-58
2023/10/14 11:31:53;;;;;;;;;;;;;;;25.11;39.42;95150.31;5075123;28;1017;-58
2023/10/14 11:34:20;;;;;;;;;;;;;;;25.10;40.20;95145.13;5058390;28;1502;-58
2023/10/14 11:36:48;;;;;;;;;;;;;;;25.20;39.81;95138.97;5076325;28;1040;-57
2023/10/14 11:39:21;;;;;;;;;;;;;;;25.20;38.79;95144.44;5076144;28;1032;-58
2023/10/14 11:41:50;;;;;;;;;;;;;;;25.26;39.23;95132.50;5076345;28;912;-58
2023/10/14 11:44:17;;;;;;;;;;;;;;;25.36;39.49;95135.34;5076357;28;1055;-62
2023/10/14 11:46:43;;;;;;;;;;;;;;;25.41;40.13;95127.22;5076068;28;1083;-59
2023/10/14 11:49:10;;;;;;;;;;;;;;;25.39;40.19;95120.34;5079094;28;1906;-59
2023/10/14 11:51:39;;;;;;;;;;;;;;;25.40;39.72;95116.53;5096488;28;1005;-60
2023/10/14 11:54:06;;;;;;;;;;;;;;;25.42;39.89;95107.00;5096500;28;1055;-60
2023/10/14 11:56:33;;;;;;;;;;;;;;;25.40;39.25;95103.69;5096063;28;1203;-60
2023/10/14 11:59:00;;;;;;;;;;;;;;;25.45;39.03;95103.72;5086825;28;2458;-60
2023/10/14 12:01:28;;;;;;;;;;;;;;;25.48;39.07;95095.00;5075800;28;1032;-59
2023/10/14 12:03:54;;;;;;;;;;;;;;;25.49;38.56;95096.66;5076046;28;1032;-60
2023/10/14 12:06:20;;;;;;;;;;;;;;;25.39;38.50;95093.00;5075713;28;1057;-56
2023/10/14 12:08:48;;;;;;;;;;;;;;;25.39;38.80;95085.59;5076003;28;1914;-60
2023/10/14 12:11:16;;;;;;;;;;;;;;;25.40;39.16;95081.78;5108424;28;968;-58
2023/10/14 12:13:42;;;;;;;;;;;;;;;25.39;37.54;95088.34;5075795;28;1020;-57
2023/10/14 12:16:08;;;;;;;;;;;;;;;25.40;38.53;95078.22;5075746;28;1034;-57
2023/10/14 12:18:37;;;;;;;;;;;;;;;25.50;38.71;95081.09;5108173;28;1015;-57
2023/10/14 12:21:03;;;;;;;;;;;;;;;25.63;38.39;95080.69;5075722;28;971;-58
2023/10/14 12:23:32;;;;;;;;;;;;;;;25.68;38.25;95071.69;5075637;28;1024;-58
2023/10/14 12:26:00;;;;;;;;;;;;;;;25.68;39.24;95068.94;5075595;28;1026;-58
2023/10/14 12:28:27;;;;;;;;;;;;;;;25.61;38.77;95062.84;5075107;28;2409;-60
2023/10/14 12:30:56;;;;;;;;;;;;;;;25.57;38.99;95064.44;5075518;28;1039;-59
2023/10/14 12:33:24;;;;;;;;;;;;;;;25.57;38.31;95062.53;5075380;28;1008;-59
2023/10/14 12:35:53;;;;;;;;;;;;;;;25.58;36.92;95064.19;5075186;28;937;-57
2023/10/14 12:38:22;;;;;;;;;;;;;;;25.63;37.13;95058.78;5075039;28;1032;-58
2023/10/14 12:40:49;;;;;;;;;;;;;;;25.71;38.47;95049.28;5075373;28;1035;-59
2023/10/14 12:43:27;;;;;;;;;;;;;;;25.71;38.32;95041.88;5076782;28;2557;-59
2023/10/14 12:46:14;;;;;;;;;;;;;;;25.66;38.03;95043.72;5075389;28;999;-58
2023/10/14 12:48:41;;;;;;;;;;;;;;;25.66;38.09;95044.56;5075078;28;1913;-59
2023/10/14 12:51:10;;;;;;;;;;;;;;;25.65;37.59;95042.06;5086780;28;2673;-59
2023/10/14 12:53:37;;;;;;;;;;;;;;;25.56;37.13;95038.16;5075166;28;1011;-58
2023/10/14 12:56:03;;;;;;;;;;;;;;;25.57;38.02;95031.59;5073624;28;1633;-59
2023/10/14 12:58:29;;;;;;;;;;;;;;;25.63;37.08;95038.75;5074711;28;1036;-57
2023/10/14 13:00:56;;;;;;;;;;;;;;;25.61;38.22;95029.97;5074898;28;1031;-60
2023/10/14 13:03:23;;;;;;;;;;;;;;;25.60;37.75;95033.81;5074618;28;1036;-59
2023/10/14 13:05:52;;;;;;;;;;;;;;;25.66;38.37;95021.84;5074875;28;1036;-59
2023/10/14 13:08:21;;;;;;;;;;;;;;;25.59;36.62;95022.06;5074739;28;1914;-59
2023/10/14 13:10:47;;;;;;;;;;;;;;;25.59;38.10;95007.53;5074740;28;983;-58
2023/10/14 13:13:14;;;;;;;;;;;;;;;25.62;37.46;95015.22;5074740;28;1043;-58
2023/10/14 13:15:40;;;;;;;;;;;;;;;25.68;37.71;95015.00;5074419;28;1028;-59
2023/10/14 13:18:07;;;;;;;;;;;;;;;25.74;37.36;95009.59;5074333;28;1094;-61
2023/10/14 13:20:34;;;;;;;;;;;;;;;25.74;38.34;95001.38;5074501;28;1018;-60
2023/10/14 13:23:05;;;;;;;;;;;;;;;25.67;37.28;95001.59;5074509;28;1008;-60
2023/10/14 13:25:37;;;;;;;;;;;;;;;25.61;38.15;95008.09;5074211;28;1087;-60
2023/10/14 13:28:09;;;;;;;;;;;;;;;25.55;36.09;95004.47;5074183;28;1983;-59
2023/10/14 13:30:36;;;;;;;;;;;;;;;25.62;36.75;95001.53;5074088;28;1091;-57
2023/10/14 13:33:03;;;;;;;;;;;;;;;25.62;36.18;94999.63;5073990;28;1052;-58
2023/10/14 13:35:31;;;;;;;;;;;;;;;25.69;35.29;95004.91;5074220;28;960;-57
2023/10/14 13:37:58;;;;;;;;;;;;;;;25.76;35.69;95000.00;5074140;28;1035;-57
2023/10/14 13:40:24;;;;;;;;;;;;;;;25.81;35.69;95008.28;5073880;28;1135;-60
2023/10/14 13:42:50;;;;;;;;;;;;;;;25.83;36.11;94994.34;5073829;28;1095;-61
2023/10/14 13:45:17;;;;;;;;;;;;;;;25.81;36.04;94993.78;5073746;28;908;-61